sensor_id;sensor_type;location;lat;lon;timestamp;temperature;humidity
12845;DHT22;68700;48.534;9.196;2024-01-30T00:01:06;1.20;99.90
12845;DHT22;68700;48.534;9.196;2024-01-30T00:04:29;1.00;99.90
12845;DHT22;68700;48.534;9.196;2024-01-30T00:07:51;0.80;99.90
12845;DHT22;68700;48.534;9.196;2024-01-30T00:11:13;0.80;99.90
12845;DHT22;68700;48.534;9.196;2024-01-30T00:14:35;0.70;99.90
12845;DHT22;68700;48.534;9.196;2024-01-30T00:17:56;0.60;99.90
12845;DHT22;68700;48.534;9.196;2024-01-30T00:21:20;0.60;99.90
12845;DHT22;68700;48.534;9.196;2024-01-30T00:24:42;0.60;99.90
12845;DHT22;68700;48.534;9.196;2024-01-30T00:28:04;0.80;99.90
12845;DHT22;68700;48.534;9.196;2024-01-30T00:31:26;0.90;99.90
12845;DHT22;68700;48.534;9.196;2024-01-30T00:34:47;1.00;99.90
12845;DHT22;68700;48.534;9.196;2024-01-30T00:38:11;1.20;99.90
12845;DHT22;68700;48.534;9.196;2024-01-30T00:41:32;1.20;99.90
12845;DHT22;68700;48.534;9.196;2024-01-30T00:44:55;1.30;99.90
12845;DHT22;68700;48.534;9.196;2024-01-30T00:48:17;1.20;99.90
12845;DHT22;68700;48.534;9.196;2024-01-30T00:51:38;1.20;99.90
12845;DHT22;68700;48.534;9.196;2024-01-30T00:55:02;1.20;99.90
12845;DHT22;68700;48.534;9.196;2024-01-30T00:58:24;1.10;99.90
12845;DHT22;68700;48.534;9.196;2024-01-30T01:01:46;1.00;99.90
12845;DHT22;68700;48.534;9.196;2024-01-30T01:05:07;0.90;99.90
12845;DHT22;68700;48.534;9.196;2024-01-30T01:08:29;0.90;99.90
12845;DHT22;68700;48.534;9.196;2024-01-30T01:11:52;0.70;99.90
12845;DHT22;68700;48.534;9.196;2024-01-30T01:15:14;0.80;99.90
12845;DHT22;68700;48.534;9.196;2024-01-30T01:18:36;0.90;99.90
12845;DHT22;68700;48.534;9.196;2024-01-30T01:21:58;0.80;99.90
12845;DHT22;68700;48.534;9.196;2024-01-30T01:25:20;0.70;99.90
12845;DHT22;68700;48.534;9.196;2024-01-30T01:28:43;0.50;99.90
12845;DHT22;68700;48.534;9.196;2024-01-30T01:32:05;0.40;99.90
12845;DHT22;68700;48.534;9.196;2024-01-30T01:35:27;0.40;99.90
12845;DHT22;68700;48.534;9.196;2024-01-30T01:38:49;0.30;99.90
12845;DHT22;68700;48.534;9.196;2024-01-30T01:42:11;0.40;99.90
12845;DHT22;68700;48.534;9.196;2024-01-30T01:45:34;0.40;99.90
12845;DHT22;68700;48.534;9.196;2024-01-30T01:48:56;0.50;99.90
12845;DHT22;68700;48.534;9.196;2024-01-30T01:52:18;0.40;99.90
12845;DHT22;68700;48.534;9.196;2024-01-30T01:55:40;0.20;99.90
12845;DHT22;68700;48.534;9.196;2024-01-30T01:59:05;0.00;99.90
12845;DHT22;68700;48.534;9.196;2024-01-30T02:02:30;-0.10;99.90
12845;DHT22;68700;48.534;9.196;2024-01-30T02:05:58;-0.20;99.90
12845;DHT22;68700;48.534;9.196;2024-01-30T02:09:20;-0.30;99.90
12845;DHT22;68700;48.534;9.196;2024-01-30T02:12:42;-0.30;99.90
12845;DHT22;68700;48.534;9.196;2024-01-30T02:16:04;-0.10;99.90
12845;DHT22;68700;48.534;9.196;2024-01-30T02:19:27;-0.10;99.90
12845;DHT22;68700;48.534;9.196;2024-01-30T02:22:52;0.00;99.90
12845;DHT22;68700;48.534;9.196;2024-01-30T02:26:14;0.10;99.90
12845;DHT22;68700;48.534;9.196;2024-01-30T02:29:36;0.20;99.90
12845;DHT22;68700;48.534;9.196;2024-01-30T02:32:58;0.10;99.90
12845;DHT22;68700;48.534;9.196;2024-01-30T02:36:19;0.00;99.90
12845;DHT22;68700;48.534;9.196;2024-01-30T02:39:43;0.00;99.90
12845;DHT22;68700;48.534;9.196;2024-01-30T02:43:05;-0.10;99.90
12845;DHT22;68700;48.534;9.196;2024-01-30T02:46:27;-0.10;99.90
12845;DHT22;68700;48.534;9.196;2024-01-30T02:49:48;-0.10;99.90
12845;DHT22;68700;48.534;9.196;2024-01-30T02:53:10;-0.10;99.90
12845;DHT22;68700;48.534;9.196;2024-01-30T02:56:33;0.00;99.90
12845;DHT22;68700;48.534;9.196;2024-01-30T02:59:55;0.20;99.90
12845;DHT22;68700;48.534;9.196;2024-01-30T03:03:17;0.20;99.90
12845;DHT22;68700;48.534;9.196;2024-01-30T03:06:39;0.30;99.90
12845;DHT22;68700;48.534;9.196;2024-01-30T03:10:00;0.30;99.90
12845;DHT22;68700;48.534;9.196;2024-01-30T03:13:24;0.20;99.90
12845;DHT22;68700;48.534;9.196;2024-01-30T03:16:46;0.20;99.90
12845;DHT22;68700;48.534;9.196;2024-01-30T03:20:08;0.20;99.90
12845;DHT22;68700;48.534;9.196;2024-01-30T03:23:30;0.10;99.90
12845;DHT22;68700;48.534;9.196;2024-01-30T03:26:53;0.00;99.90
12845;DHT22;68700;48.534;9.196;2024-01-30T03:30:16;-0.10;99.90
12845;DHT22;68700;48.534;9.196;2024-01-30T03:33:38;-0.20;99.90
12845;DHT22;68700;48.534;9.196;2024-01-30T03:37:00;-0.30;99.90
12845;DHT22;68700;48.534;9.196;2024-01-30T03:40:21;-0.40;99.90
12845;DHT22;68700;48.534;9.196;2024-01-30T03:43:43;-0.40;99.90
12845;DHT22;68700;48.534;9.196;2024-01-30T03:47:06;-0.40;99.90
12845;DHT22;68700;48.534;9.196;2024-01-30T03:50:28;-0.30;99.90
12845;DHT22;68700;48.534;9.196;2024-01-30T03:53:50;-0.20;99.90
12845;DHT22;68700;48.534;9.196;2024-01-30T03:57:12;-0.30;99.90
12845;DHT22;68700;48.534;9.196;2024-01-30T04:00:34;-0.30;99.90
12845;DHT22;68700;48.534;9.196;2024-01-30T04:03:57;-0.30;99.90
12845;DHT22;68700;48.534;9.196;2024-01-30T04:07:18;-0.30;99.90
12845;DHT22;68700;48.534;9.196;2024-01-30T04:10:40;-0.20;99.90
12845;DHT22;68700;48.534;9.196;2024-01-30T04:14:02;-0.20;99.90
12845;DHT22;68700;48.534;9.196;2024-01-30T04:17:24;-0.20;99.90
12845;DHT22;68700;48.534;9.196;2024-01-30T04:20:47;-0.20;99.90
12845;DHT22;68700;48.534;9.196;2024-01-30T04:24:09;-0.30;99.90
12845;DHT22;68700;48.534;9.196;2024-01-30T04:27:31;-0.20;99.90
12845;DHT22;68700;48.534;9.196;2024-01-30T04:30:53;-0.20;99.90
12845;DHT22;68700;48.534;9.196;2024-01-30T04:34:15;-0.20;99.90
12845;DHT22;68700;48.534;9.196;2024-01-30T04:37:38;-0.10;99.90
12845;DHT22;68700;48.534;9.196;2024-01-30T04:41:00;0.00;99.90
12845;DHT22;68700;48.534;9.196;2024-01-30T04:44:22;0.00;99.90
12845;DHT22;68700;48.534;9.196;2024-01-30T04:47:43;0.00;99.90
12845;DHT22;68700;48.534;9.196;2024-01-30T04:51:06;0.00;99.90
12845;DHT22;68700;48.534;9.196;2024-01-30T04:54:29;-0.10;99.90
12845;DHT22;68700;48.534;9.196;2024-01-30T04:57:51;-0.20;99.90
12845;DHT22;68700;48.534;9.196;2024-01-30T05:01:15;-0.20;99.90
12845;DHT22;68700;48.534;9.196;2024-01-30T05:04:37;-0.30;99.90
12845;DHT22;68700;48.534;9.196;2024-01-30T05:07:59;-0.30;99.90
12845;DHT22;68700;48.534;9.196;2024-01-30T05:11:22;-0.30;99.90
12845;DHT22;68700;48.534;9.196;2024-01-30T05:14:44;-0.40;99.90
12845;DHT22;68700;48.534;9.196;2024-01-30T05:18:06;-0.50;99.90
12845;DHT22;68700;48.534;9.196;2024-01-30T05:21:27;-0.60;99.90
12845;DHT22;68700;48.534;9.196;2024-01-30T05:24:49;-0.60;99.90
12845;DHT22;68700;48.534;9.196;2024-01-30T05:28:12;-0.70;99.90
12845;DHT22;68700;48.534;9.196;2024-01-30T05:31:34;-0.90;99.90
12845;DHT22;68700;48.534;9.196;2024-01-30T05:34:56;-1.00;99.90
12845;DHT22;68700;48.534;9.196;2024-01-30T05:38:18;-1.00;99.90
12845;DHT22;68700;48.534;9.196;2024-01-30T05:41:40;-1.10;99.90
12845;DHT22;68700;48.534;9.196;2024-01-30T05:45:04;-1.10;99.90
12845;DHT22;68700;48.534;9.196;2024-01-30T05:48:26;-1.10;99.90
12845;DHT22;68700;48.534;9.196;2024-01-30T05:51:48;-1.00;99.90
12845;DHT22;68700;48.534;9.196;2024-01-30T05:55:10;-1.00;99.90
12845;DHT22;68700;48.534;9.196;2024-01-30T05:58:32;-1.10;99.90
12845;DHT22;68700;48.534;9.196;2024-01-30T06:01:55;-1.10;99.90
12845;DHT22;68700;48.534;9.196;2024-01-30T06:05:17;-1.10;99.90
12845;DHT22;68700;48.534;9.196;2024-01-30T06:08:39;-1.10;99.90
12845;DHT22;68700;48.534;9.196;2024-01-30T06:12:00;-1.10;99.90
12845;DHT22;68700;48.534;9.196;2024-01-30T06:15:22;-1.20;99.90
12845;DHT22;68700;48.534;9.196;2024-01-30T06:18:45;-1.30;99.90
12845;DHT22;68700;48.534;9.196;2024-01-30T06:22:08;-1.30;99.90
12845;DHT22;68700;48.534;9.196;2024-01-30T06:25:30;-1.40;99.90
12845;DHT22;68700;48.534;9.196;2024-01-30T06:28:52;-1.40;99.90
12845;DHT22;68700;48.534;9.196;2024-01-30T06:32:13;-1.40;99.90
12845;DHT22;68700;48.534;9.196;2024-01-30T06:35:36;-1.40;99.90
12845;DHT22;68700;48.534;9.196;2024-01-30T06:39:01;-1.40;99.90
12845;DHT22;68700;48.534;9.196;2024-01-30T06:42:22;-1.40;99.90
12845;DHT22;68700;48.534;9.196;2024-01-30T06:45:44;-1.10;99.90
12845;DHT22;68700;48.534;9.196;2024-01-30T06:49:06;-1.00;99.90
12845;DHT22;68700;48.534;9.196;2024-01-30T06:52:30;-0.70;99.90
12845;DHT22;68700;48.534;9.196;2024-01-30T06:55:52;-0.70;99.90
12845;DHT22;68700;48.534;9.196;2024-01-30T06:59:13;-0.60;99.90
12845;DHT22;68700;48.534;9.196;2024-01-30T07:02:35;-0.40;99.90
12845;DHT22;68700;48.534;9.196;2024-01-30T07:05:57;-0.30;99.90
12845;DHT22;68700;48.534;9.196;2024-01-30T07:09:20;-0.30;99.90
12845;DHT22;68700;48.534;9.196;2024-01-30T07:12:43;-0.20;99.90
12845;DHT22;68700;48.534;9.196;2024-01-30T07:16:05;-0.10;99.90
12845;DHT22;68700;48.534;9.196;2024-01-30T07:19:27;0.00;99.90
12845;DHT22;68700;48.534;9.196;2024-01-30T07:22:49;0.10;99.90
12845;DHT22;68700;48.534;9.196;2024-01-30T07:26:13;0.40;99.90
12845;DHT22;68700;48.534;9.196;2024-01-30T07:29:35;0.50;99.90
12845;DHT22;68700;48.534;9.196;2024-01-30T07:32:57;0.60;99.90
12845;DHT22;68700;48.534;9.196;2024-01-30T07:36:18;0.80;99.90
12845;DHT22;68700;48.534;9.196;2024-01-30T07:39:40;1.00;99.90
12845;DHT22;68700;48.534;9.196;2024-01-30T07:43:04;1.50;99.90
12845;DHT22;68700;48.534;9.196;2024-01-30T07:46:26;2.40;99.90
12845;DHT22;68700;48.534;9.196;2024-01-30T07:49:47;3.30;99.90
12845;DHT22;68700;48.534;9.196;2024-01-30T07:53:09;3.70;99.90
12845;DHT22;68700;48.534;9.196;2024-01-30T07:56:31;4.30;1.00
12845;DHT22;68700;48.534;9.196;2024-01-30T07:59:54;4.90;1.00
12845;DHT22;68700;48.534;9.196;2024-01-30T08:03:17;5.10;1.00
12845;DHT22;68700;48.534;9.196;2024-01-30T08:06:39;5.60;1.00
12845;DHT22;68700;48.534;9.196;2024-01-30T08:10:01;6.00;1.00
12845;DHT22;68700;48.534;9.196;2024-01-30T08:13:23;6.80;1.00
12845;DHT22;68700;48.534;9.196;2024-01-30T08:16:46;7.30;1.00
12845;DHT22;68700;48.534;9.196;2024-01-30T08:20:08;6.80;1.00
12845;DHT22;68700;48.534;9.196;2024-01-30T08:23:32;6.30;1.00
12845;DHT22;68700;48.534;9.196;2024-01-30T08:26:54;6.90;1.00
12845;DHT22;68700;48.534;9.196;2024-01-30T08:30:16;7.90;1.00
12845;DHT22;68700;48.534;9.196;2024-01-30T08:33:39;9.00;99.90
12845;DHT22;68700;48.534;9.196;2024-01-30T08:37:01;9.60;99.90
12845;DHT22;68700;48.534;9.196;2024-01-30T08:40:22;9.50;99.90
12845;DHT22;68700;48.534;9.196;2024-01-30T08:43:44;10.00;99.90
12845;DHT22;68700;48.534;9.196;2024-01-30T08:47:06;10.00;99.90
12845;DHT22;68700;48.534;9.196;2024-01-30T08:50:29;9.60;99.90
12845;DHT22;68700;48.534;9.196;2024-01-30T08:53:51;9.30;99.90
12845;DHT22;68700;48.534;9.196;2024-01-30T08:57:14;9.50;99.90
12845;DHT22;68700;48.534;9.196;2024-01-30T09:00:36;9.90;99.90
12845;DHT22;68700;48.534;9.196;2024-01-30T09:03:58;10.40;99.90
12845;DHT22;68700;48.534;9.196;2024-01-30T09:07:21;9.90;99.90
12845;DHT22;68700;48.534;9.196;2024-01-30T09:10:43;9.90;99.90
12845;DHT22;68700;48.534;9.196;2024-01-30T09:14:05;9.50;99.90
12845;DHT22;68700;48.534;9.196;2024-01-30T09:17:27;8.40;99.90
12845;DHT22;68700;48.534;9.196;2024-01-30T09:20:49;8.80;99.90
12845;DHT22;68700;48.534;9.196;2024-01-30T09:24:12;8.90;99.90
12845;DHT22;68700;48.534;9.196;2024-01-30T09:27:34;9.40;99.90
12845;DHT22;68700;48.534;9.196;2024-01-30T09:30:56;9.30;99.90
12845;DHT22;68700;48.534;9.196;2024-01-30T09:34:18;10.10;99.90
12845;DHT22;68700;48.534;9.196;2024-01-30T09:37:40;10.50;99.90
12845;DHT22;68700;48.534;9.196;2024-01-30T09:41:08;11.60;99.90
12845;DHT22;68700;48.534;9.196;2024-01-30T09:44:31;12.20;99.90
12845;DHT22;68700;48.534;9.196;2024-01-30T09:47:53;11.00;99.90
12845;DHT22;68700;48.534;9.196;2024-01-30T09:51:15;10.60;99.90
12845;DHT22;68700;48.534;9.196;2024-01-30T09:54:38;10.90;99.90
12845;DHT22;68700;48.534;9.196;2024-01-30T09:58:01;10.00;99.90
12845;DHT22;68700;48.534;9.196;2024-01-30T10:01:24;10.30;99.90
12845;DHT22;68700;48.534;9.196;2024-01-30T10:04:48;10.20;99.90
12845;DHT22;68700;48.534;9.196;2024-01-30T10:08:10;10.50;99.90
12845;DHT22;68700;48.534;9.196;2024-01-30T10:11:32;10.20;99.90
12845;DHT22;68700;48.534;9.196;2024-01-30T10:14:56;9.40;99.90
12845;DHT22;68700;48.534;9.196;2024-01-30T10:18:18;9.20;99.90
12845;DHT22;68700;48.534;9.196;2024-01-30T10:21:40;9.30;99.90
12845;DHT22;68700;48.534;9.196;2024-01-30T10:25:02;9.40;99.90
12845;DHT22;68700;48.534;9.196;2024-01-30T10:28:27;9.70;99.90
12845;DHT22;68700;48.534;9.196;2024-01-30T10:31:59;9.80;99.90
12845;DHT22;68700;48.534;9.196;2024-01-30T10:35:21;10.10;99.90
12845;DHT22;68700;48.534;9.196;2024-01-30T10:38:43;9.70;99.90
12845;DHT22;68700;48.534;9.196;2024-01-30T10:42:12;9.00;99.90
12845;DHT22;68700;48.534;9.196;2024-01-30T10:45:35;9.30;99.90
12845;DHT22;68700;48.534;9.196;2024-01-30T10:48:58;9.60;99.90
12845;DHT22;68700;48.534;9.196;2024-01-30T10:52:21;9.60;99.90
12845;DHT22;68700;48.534;9.196;2024-01-30T10:55:46;9.50;99.90
12845;DHT22;68700;48.534;9.196;2024-01-30T10:59:09;9.60;99.90
12845;DHT22;68700;48.534;9.196;2024-01-30T11:02:32;10.00;99.90
12845;DHT22;68700;48.534;9.196;2024-01-30T11:05:59;10.30;99.90
12845;DHT22;68700;48.534;9.196;2024-01-30T11:09:22;10.40;99.90
12845;DHT22;68700;48.534;9.196;2024-01-30T11:12:45;10.70;99.90
12845;DHT22;68700;48.534;9.196;2024-01-30T11:16:11;10.60;99.90
12845;DHT22;68700;48.534;9.196;2024-01-30T11:19:33;10.60;99.90
12845;DHT22;68700;48.534;9.196;2024-01-30T11:22:57;10.60;99.90
12845;DHT22;68700;48.534;9.196;2024-01-30T11:26:19;10.70;99.90
12845;DHT22;68700;48.534;9.196;2024-01-30T11:29:50;10.60;99.90
12845;DHT22;68700;48.534;9.196;2024-01-30T11:33:12;10.70;99.90
12845;DHT22;68700;48.534;9.196;2024-01-30T11:36:35;10.30;99.90
12845;DHT22;68700;48.534;9.196;2024-01-30T11:39:59;10.70;99.90
12845;DHT22;68700;48.534;9.196;2024-01-30T11:43:21;10.90;99.90
12845;DHT22;68700;48.534;9.196;2024-01-30T11:46:43;10.70;99.90
12845;DHT22;68700;48.534;9.196;2024-01-30T11:50:05;10.40;99.90
12845;DHT22;68700;48.534;9.196;2024-01-30T11:53:27;10.80;99.90
12845;DHT22;68700;48.534;9.196;2024-01-30T11:56:50;11.10;99.90
12845;DHT22;68700;48.534;9.196;2024-01-30T12:00:16;11.50;99.90
12845;DHT22;68700;48.534;9.196;2024-01-30T12:03:40;12.00;99.90
12845;DHT22;68700;48.534;9.196;2024-01-30T12:07:02;12.30;99.90
12845;DHT22;68700;48.534;9.196;2024-01-30T12:10:24;12.50;99.90
12845;DHT22;68700;48.534;9.196;2024-01-30T12:13:48;12.40;99.90
12845;DHT22;68700;48.534;9.196;2024-01-30T12:17:11;12.00;99.90
12845;DHT22;68700;48.534;9.196;2024-01-30T12:20:33;12.10;99.90
12845;DHT22;68700;48.534;9.196;2024-01-30T12:23:56;12.10;99.90
12845;DHT22;68700;48.534;9.196;2024-01-30T12:27:17;11.70;99.90
12845;DHT22;68700;48.534;9.196;2024-01-30T12:30:41;11.80;99.90
12845;DHT22;68700;48.534;9.196;2024-01-30T12:34:03;12.00;99.90
12845;DHT22;68700;48.534;9.196;2024-01-30T12:37:25;12.10;99.90
12845;DHT22;68700;48.534;9.196;2024-01-30T12:40:47;12.00;99.90
12845;DHT22;68700;48.534;9.196;2024-01-30T12:44:08;11.80;99.90
12845;DHT22;68700;48.534;9.196;2024-01-30T12:47:32;11.80;99.90
12845;DHT22;68700;48.534;9.196;2024-01-30T12:50:54;12.00;99.90
12845;DHT22;68700;48.534;9.196;2024-01-30T12:54:15;12.50;99.90
12845;DHT22;68700;48.534;9.196;2024-01-30T12:57:37;13.00;99.90
12845;DHT22;68700;48.534;9.196;2024-01-30T13:01:00;13.60;99.90
12845;DHT22;68700;48.534;9.196;2024-01-30T13:04:23;13.80;99.90
12845;DHT22;68700;48.534;9.196;2024-01-30T13:07:45;14.50;99.90
12845;DHT22;68700;48.534;9.196;2024-01-30T13:11:07;15.50;99.90
12845;DHT22;68700;48.534;9.196;2024-01-30T13:14:29;16.80;99.90
12845;DHT22;68700;48.534;9.196;2024-01-30T13:17:51;16.80;99.90
12845;DHT22;68700;48.534;9.196;2024-01-30T13:21:16;17.00;99.90
12845;DHT22;68700;48.534;9.196;2024-01-30T13:24:38;16.90;99.90
12845;DHT22;68700;48.534;9.196;2024-01-30T13:27:59;16.40;99.90
12845;DHT22;68700;48.534;9.196;2024-01-30T13:31:22;16.00;99.90
12845;DHT22;68700;48.534;9.196;2024-01-30T13:34:43;15.50;99.90
12845;DHT22;68700;48.534;9.196;2024-01-30T13:38:07;14.90;99.90
12845;DHT22;68700;48.534;9.196;2024-01-30T13:41:28;14.90;99.90
12845;DHT22;68700;48.534;9.196;2024-01-30T13:44:50;14.70;99.90
12845;DHT22;68700;48.534;9.196;2024-01-30T13:48:12;14.30;99.90
12845;DHT22;68700;48.534;9.196;2024-01-30T13:51:34;14.40;99.90
12845;DHT22;68700;48.534;9.196;2024-01-30T13:54:57;14.30;99.90
12845;DHT22;68700;48.534;9.196;2024-01-30T13:58:19;14.10;99.90
12845;DHT22;68700;48.534;9.196;2024-01-30T14:01:41;14.30;99.90
12845;DHT22;68700;48.534;9.196;2024-01-30T14:05:03;14.50;99.90
12845;DHT22;68700;48.534;9.196;2024-01-30T14:08:26;14.90;99.90
12845;DHT22;68700;48.534;9.196;2024-01-30T14:11:50;15.00;99.90
12845;DHT22;68700;48.534;9.196;2024-01-30T14:15:12;15.40;99.90
12845;DHT22;68700;48.534;9.196;2024-01-30T14:18:35;15.80;99.90
12845;DHT22;68700;48.534;9.196;2024-01-30T14:21:57;15.70;99.90
12845;DHT22;68700;48.534;9.196;2024-01-30T14:25:19;15.70;99.90
12845;DHT22;68700;48.534;9.196;2024-01-30T14:28:42;15.90;99.90
12845;DHT22;68700;48.534;9.196;2024-01-30T14:32:06;15.90;99.90
12845;DHT22;68700;48.534;9.196;2024-01-30T14:35:28;15.80;99.90
12845;DHT22;68700;48.534;9.196;2024-01-30T14:38:50;16.00;99.90
12845;DHT22;68700;48.534;9.196;2024-01-30T14:42:12;16.40;99.90
12845;DHT22;68700;48.534;9.196;2024-01-30T14:45:35;16.60;99.90
12845;DHT22;68700;48.534;9.196;2024-01-30T14:48:58;17.10;99.90
12845;DHT22;68700;48.534;9.196;2024-01-30T14:52:20;16.90;99.90
12845;DHT22;68700;48.534;9.196;2024-01-30T14:55:42;16.10;99.90
12845;DHT22;68700;48.534;9.196;2024-01-30T14:59:04;15.90;99.90
12845;DHT22;68700;48.534;9.196;2024-01-30T15:02:28;15.50;99.90
12845;DHT22;68700;48.534;9.196;2024-01-30T15:05:49;15.10;99.90
12845;DHT22;68700;48.534;9.196;2024-01-30T15:09:11;14.80;99.90
12845;DHT22;68700;48.534;9.196;2024-01-30T15:12:35;14.10;99.90
12845;DHT22;68700;48.534;9.196;2024-01-30T15:15:58;13.60;99.90
12845;DHT22;68700;48.534;9.196;2024-01-30T15:19:21;13.30;99.90
12845;DHT22;68700;48.534;9.196;2024-01-30T15:22:43;12.80;99.90
12845;DHT22;68700;48.534;9.196;2024-01-30T15:26:05;12.50;99.90
12845;DHT22;68700;48.534;9.196;2024-01-30T15:29:27;12.20;1.00
12845;DHT22;68700;48.534;9.196;2024-01-30T15:32:49;11.90;99.90
12845;DHT22;68700;48.534;9.196;2024-01-30T15:36:13;11.60;1.00
12845;DHT22;68700;48.534;9.196;2024-01-30T15:39:35;11.30;1.00
12845;DHT22;68700;48.534;9.196;2024-01-30T15:42:56;11.10;1.00
12845;DHT22;68700;48.534;9.196;2024-01-30T15:46:18;10.90;1.00
12845;DHT22;68700;48.534;9.196;2024-01-30T15:49:40;10.60;1.00
12845;DHT22;68700;48.534;9.196;2024-01-30T15:53:04;10.40;1.00
12845;DHT22;68700;48.534;9.196;2024-01-30T15:56:25;10.30;1.00
12845;DHT22;68700;48.534;9.196;2024-01-30T15:59:47;10.20;1.00
12845;DHT22;68700;48.534;9.196;2024-01-30T16:03:09;10.00;1.00
12845;DHT22;68700;48.534;9.196;2024-01-30T16:06:31;9.90;1.00
12845;DHT22;68700;48.534;9.196;2024-01-30T16:09:54;9.70;1.00
12845;DHT22;68700;48.534;9.196;2024-01-30T16:13:16;9.60;1.00
12845;DHT22;68700;48.534;9.196;2024-01-30T16:16:37;9.50;1.00
12845;DHT22;68700;48.534;9.196;2024-01-30T16:20:00;9.30;1.00
12845;DHT22;68700;48.534;9.196;2024-01-30T16:23:21;9.20;1.00
12845;DHT22;68700;48.534;9.196;2024-01-30T16:26:45;9.10;1.00
12845;DHT22;68700;48.534;9.196;2024-01-30T16:30:08;8.90;1.00
12845;DHT22;68700;48.534;9.196;2024-01-30T16:33:31;8.80;1.00
12845;DHT22;68700;48.534;9.196;2024-01-30T16:36:53;8.70;1.00
12845;DHT22;68700;48.534;9.196;2024-01-30T16:40:14;8.60;1.00
12845;DHT22;68700;48.534;9.196;2024-01-30T16:43:38;8.50;1.00
12845;DHT22;68700;48.534;9.196;2024-01-30T16:46:59;8.50;1.00
12845;DHT22;68700;48.534;9.196;2024-01-30T16:50:21;8.40;1.00
12845;DHT22;68700;48.534;9.196;2024-01-30T16:53:43;8.40;1.00
12845;DHT22;68700;48.534;9.196;2024-01-30T16:57:05;8.30;1.00
12845;DHT22;68700;48.534;9.196;2024-01-30T17:00:28;8.20;1.00
12845;DHT22;68700;48.534;9.196;2024-01-30T17:03:50;8.10;1.00
12845;DHT22;68700;48.534;9.196;2024-01-30T17:07:12;8.20;1.00
12845;DHT22;68700;48.534;9.196;2024-01-30T17:10:33;8.10;1.00
12845;DHT22;68700;48.534;9.196;2024-01-30T17:13:55;8.10;1.00
12845;DHT22;68700;48.534;9.196;2024-01-30T17:17:18;8.10;1.00
12845;DHT22;68700;48.534;9.196;2024-01-30T17:20:40;8.10;1.00
12845;DHT22;68700;48.534;9.196;2024-01-30T17:24:02;8.00;1.00
12845;DHT22;68700;48.534;9.196;2024-01-30T17:27:24;7.90;1.00
12845;DHT22;68700;48.534;9.196;2024-01-30T17:30:46;7.80;1.00
12845;DHT22;68700;48.534;9.196;2024-01-30T17:34:09;7.80;1.00
12845;DHT22;68700;48.534;9.196;2024-01-30T17:37:31;7.80;1.00
12845;DHT22;68700;48.534;9.196;2024-01-30T17:40:55;7.80;1.00
12845;DHT22;68700;48.534;9.196;2024-01-30T17:44:17;7.70;1.00
12845;DHT22;68700;48.534;9.196;2024-01-30T17:47:41;7.60;1.00
12845;DHT22;68700;48.534;9.196;2024-01-30T17:51:04;7.60;1.00
12845;DHT22;68700;48.534;9.196;2024-01-30T17:54:26;7.60;1.00
12845;DHT22;68700;48.534;9.196;2024-01-30T17:57:48;7.60;1.00
12845;DHT22;68700;48.534;9.196;2024-01-30T18:01:10;7.60;1.00
12845;DHT22;68700;48.534;9.196;2024-01-30T18:04:32;7.70;1.00
12845;DHT22;68700;48.534;9.196;2024-01-30T18:07:56;7.70;1.00
12845;DHT22;68700;48.534;9.196;2024-01-30T18:11:18;7.80;1.00
12845;DHT22;68700;48.534;9.196;2024-01-30T18:14:40;7.80;1.00
12845;DHT22;68700;48.534;9.196;2024-01-30T18:18:02;7.90;1.00
12845;DHT22;68700;48.534;9.196;2024-01-30T18:21:26;7.90;1.00
12845;DHT22;68700;48.534;9.196;2024-01-30T18:24:49;7.90;1.00
12845;DHT22;68700;48.534;9.196;2024-01-30T18:28:11;7.90;1.00
12845;DHT22;68700;48.534;9.196;2024-01-30T18:31:33;7.90;1.00
12845;DHT22;68700;48.534;9.196;2024-01-30T18:34:54;7.90;1.00
12845;DHT22;68700;48.534;9.196;2024-01-30T18:38:16;7.90;1.00
12845;DHT22;68700;48.534;9.196;2024-01-30T18:41:39;7.90;1.00
12845;DHT22;68700;48.534;9.196;2024-01-30T18:45:01;8.00;1.00
12845;DHT22;68700;48.534;9.196;2024-01-30T18:48:23;7.90;1.00
12845;DHT22;68700;48.534;9.196;2024-01-30T18:51:47;7.90;1.00
12845;DHT22;68700;48.534;9.196;2024-01-30T18:55:09;7.90;1.00
12845;DHT22;68700;48.534;9.196;2024-01-30T18:58:32;7.90;1.00
12845;DHT22;68700;48.534;9.196;2024-01-30T19:01:54;7.80;1.00
12845;DHT22;68700;48.534;9.196;2024-01-30T19:05:16;7.90;1.00
12845;DHT22;68700;48.534;9.196;2024-01-30T19:08:38;7.80;1.00
12845;DHT22;68700;48.534;9.196;2024-01-30T19:12:00;7.80;1.00
12845;DHT22;68700;48.534;9.196;2024-01-30T19:15:23;7.80;1.00
12845;DHT22;68700;48.534;9.196;2024-01-30T19:18:45;7.90;1.00
12845;DHT22;68700;48.534;9.196;2024-01-30T19:22:09;7.80;1.00
12845;DHT22;68700;48.534;9.196;2024-01-30T19:25:31;7.80;1.00
12845;DHT22;68700;48.534;9.196;2024-01-30T19:28:53;7.70;1.00
12845;DHT22;68700;48.534;9.196;2024-01-30T19:32:16;7.80;1.00
12845;DHT22;68700;48.534;9.196;2024-01-30T19:35:38;7.90;1.00
12845;DHT22;68700;48.534;9.196;2024-01-30T19:39:00;7.90;1.00
12845;DHT22;68700;48.534;9.196;2024-01-30T19:42:22;8.00;1.00
12845;DHT22;68700;48.534;9.196;2024-01-30T19:45:44;8.00;1.00
12845;DHT22;68700;48.534;9.196;2024-01-30T19:49:07;8.00;1.00
12845;DHT22;68700;48.534;9.196;2024-01-30T19:52:29;8.00;1.00
12845;DHT22;68700;48.534;9.196;2024-01-30T19:55:51;8.00;1.00
12845;DHT22;68700;48.534;9.196;2024-01-30T19:59:13;8.00;1.00
12845;DHT22;68700;48.534;9.196;2024-01-30T20:02:35;8.00;1.00
12845;DHT22;68700;48.534;9.196;2024-01-30T20:05:58;8.10;1.00
12845;DHT22;68700;48.534;9.196;2024-01-30T20:09:27;8.10;1.00
12845;DHT22;68700;48.534;9.196;2024-01-30T20:12:49;8.10;1.00
12845;DHT22;68700;48.534;9.196;2024-01-30T20:16:11;8.10;1.00
12845;DHT22;68700;48.534;9.196;2024-01-30T20:19:34;7.90;1.00
12845;DHT22;68700;48.534;9.196;2024-01-30T20:22:57;7.50;1.00
12845;DHT22;68700;48.534;9.196;2024-01-30T20:26:19;7.20;1.00
12845;DHT22;68700;48.534;9.196;2024-01-30T20:29:41;6.90;1.00
12845;DHT22;68700;48.534;9.196;2024-01-30T20:33:03;6.80;1.00
12845;DHT22;68700;48.534;9.196;2024-01-30T20:36:25;6.70;1.00
12845;DHT22;68700;48.534;9.196;2024-01-30T20:39:48;6.50;1.00
12845;DHT22;68700;48.534;9.196;2024-01-30T20:43:10;6.40;1.00
12845;DHT22;68700;48.534;9.196;2024-01-30T20:46:32;6.30;1.00
12845;DHT22;68700;48.534;9.196;2024-01-30T20:49:54;6.20;1.00
12845;DHT22;68700;48.534;9.196;2024-01-30T20:53:16;6.20;1.00
12845;DHT22;68700;48.534;9.196;2024-01-30T20:56:39;6.00;1.00
12845;DHT22;68700;48.534;9.196;2024-01-30T21:00:01;5.90;1.00
12845;DHT22;68700;48.534;9.196;2024-01-30T21:03:25;5.80;1.00
12845;DHT22;68700;48.534;9.196;2024-01-30T21:06:49;5.70;1.00
12845;DHT22;68700;48.534;9.196;2024-01-30T21:10:11;5.70;1.00
12845;DHT22;68700;48.534;9.196;2024-01-30T21:13:34;5.80;1.00
12845;DHT22;68700;48.534;9.196;2024-01-30T21:16:56;5.90;1.00
12845;DHT22;68700;48.534;9.196;2024-01-30T21:20:18;6.10;1.00
12845;DHT22;68700;48.534;9.196;2024-01-30T21:23:39;6.20;1.00
12845;DHT22;68700;48.534;9.196;2024-01-30T21:27:01;6.50;1.00
12845;DHT22;68700;48.534;9.196;2024-01-30T21:30:24;6.70;1.00
12845;DHT22;68700;48.534;9.196;2024-01-30T21:33:48;6.80;1.00
12845;DHT22;68700;48.534;9.196;2024-01-30T21:37:10;7.00;1.00